• Join FlightAware (Why Join?)
  • Login
  • US Flag 
08:06AM EDT


 

Airport Tracker/Info


-or-


 

Live Flight TrackerFlight Track Log ✈ SWA1533 ✈ 13-Jul-2013 ✈ KDEN - KOMA

Flight Track Log - Related Links

Times and Time Zones

All times are in EDT time to prevent confusion due to time zone crossing. See the SWA1533 flight status page for this flight to view local times or setup timezone preferences in your user account.

Time Position Orientation Groundspeed Altitude Reporting Facility
EDT Latitude Longitude Course Direction KTS MPH feet Rate Location/Type
11:05PM 39.8667 -104.6167 75° East 256 295 7,900  Level Denver TRACON
11:06PM 39.8167 -104.5333 128° Southeast 305 351 11,500 3,480 Climbing Denver TRACON
11:07PM 39.7667 -104.4333 123° Southeast 309 356 14,900 2,700 Climbing Denver TRACON
11:08PM 39.7167 -104.3333 123° Southeast 347 399 16,900 2,220 Climbing Denver TRACON
11:09PM 39.6556 -104.1847 118° Southeast 389 448 20,000 2,520 Climbing Denver Center
11:10PM 39.9977 -104.0027 75° East  Level Estimated
11:10PM 39.6342 -104.0297 100° East 411 473 22,700  Level Denver Center
11:11PM 39.6278 -103.8772 93° East 419 482 23,900 1,080 Climbing Denver Center
11:12PM 39.6225 -103.7267 93° East 420 483 25,000 1,200 Climbing Denver Center
11:13PM 39.6208 -103.5703 91° East 432 497 26,400 960 Climbing Denver Center
11:14PM 39.6261 -103.4108 87° East 442 509 27,000 240 Climbing Denver Center
11:15PM 39.6331 -103.2536 87° East 440 506 27,000 600 Level Denver Center
11:16PM 39.6392 -103.0931 87° East 445 512 28,300 1,560 Climbing Denver Center
11:17PM 39.6522 -102.8964 85° East 469 540 30,300 1,320 Climbing Denver Center
11:18PM 39.6803 -102.7319 77° East 468 539 31,000 300 Climbing Denver Center
11:19PM 39.7253 -102.5922 67° East 470 541 31,000 780 Level Denver Center
11:20PM 39.7808 -102.4167 68° East 471 542 32,700 1,560 Climbing Denver Center
11:21PM 39.8281 -102.2672 68° East 469 540 34,200 1,080 Climbing Denver Center
11:22PM 39.8819 -102.0950 68° East 460 529 35,000 360 Climbing Denver Center
11:23PM 39.9272 -101.9514 68° East 451 519 35,000  Level Denver Center
11:24PM 39.9728 -101.8036 68° East 458 527 35,100 840 Climbing Denver Center
11:25PM 40.0258 -101.6328 68° East 457 526 36,800 1,380 Climbing Denver Center
11:26PM 40.0708 -101.4844 68° East 460 529 38,000 1,020 Climbing Denver Center
11:27PM 40.1233 -101.3111 68° East 461 531 39,000 480 Climbing Denver Center
11:28PM 40.1689 -101.1606 68° East 465 535 39,000  Level Denver Center
11:29PM 40.2133 -101.0128 68° East 459 528 39,000  Level Denver Center
11:30PM 40.2650 -100.8394 69° East 459 528 39,000  Level Denver Center
11:31PM 40.3078 -100.6956 69° East 448 516 39,000  Level Denver Center
11:32PM 40.3575 -100.5269 69° East 447 514 39,000  Level Denver Center
11:33PM 40.4006 -100.3833 68° East 445 512 39,000  Level Denver Center
11:34PM 40.4425 -100.2369 69° East 449 517 39,000  Level Denver Center
11:35PM 40.4925 -100.0661 69° East 450 518 39,000  Level Denver Center
11:36PM 40.5356 -99.9194 69° East 451 519 39,000  Level Denver Center
11:37PM 40.5803 -99.7614 70° East 451 519 39,000  Level Denver Center
11:39PM 40.6242 -99.6075 69° East 451 519 39,000 -180 Level Denver Center
11:39PM 40.6517 -99.5161 68° East 453 521 38,800 -660 Descending Minneapolis Center
11:40PM 40.6861 -99.3914 70° East 454 522 38,000 -960 Descending Minneapolis Center
11:41PM 40.7392 -99.2047 69° East 454 522 36,900 -1,020 Descending Minneapolis Center
11:42PM 40.7789 -99.0594 70° East 460 529 36,000 -960 Descending Minneapolis Center
11:43PM 40.8297 -98.8694 70° East 459 528 35,000 -540 Descending Minneapolis Center
11:44PM 40.8719 -98.7161 70° East 449 517 35,000  Level Minneapolis Center
11:45PM 40.9147 -98.5631 70° East 445 512 35,000  Level Minneapolis Center
11:46PM 40.9589 -98.4058 70° East 440 506 35,000  Level Minneapolis Center
11:47PM 40.9994 -98.2533 71° East 441 507 35,000  Level Minneapolis Center
11:48PM 41.0319 -98.1322 70° East 439 505 35,000 -120 Level Minneapolis Center
11:49PM 41.0806 -97.9494 71° East 440 506 34,800 -1,440 Descending Minneapolis Center
11:50PM 41.1214 -97.7956 71° East 441 507 31,800 -2,940 Descending Minneapolis Center
11:51PM 41.1714 -97.6078 70° East 448 516 28,300 -3,000 Descending Minneapolis Center
11:52PM 41.2117 -97.4569 70° East 439 505 25,800 -2,160 Descending Minneapolis Center
11:54PM 41.2489 -97.3133 71° East 425 489 23,500 -2,280 Descending Minneapolis Center
11:55PM 41.2928 -97.1461 71° East 404 465 20,800 -2,460 Descending Minneapolis Center
11:56PM 41.3264 -97.0128 71° East 387 445 18,600 -2,160 Descending Minneapolis Center
11:57PM 41.3589 -96.8844 71° East 369 425 16,500 -1,380 Descending Minneapolis Center
11:58PM 41.3497 -96.7544 95° East 360 414 15,800 -1,920 Descending Minneapolis Center
11:59PM 41.3525 -96.6286 88° East 360 414 12,700 -3,060 Descending Minneapolis Center
12:00AM 41.3850 -96.4792 74° East 352 405 9,600 -2,460 Descending Minneapolis Center
12:01AM 41.3836 -96.3614 91° East 324 373 7,800 -1,740 Descending Minneapolis Center
12:02AM 41.3822 -96.2550 91° East 300 345 6,100 -1,740 Descending Minneapolis Center
12:03AM 41.3775 -96.1533 94° East 284 327 4,400 -1,140 Descending Minneapolis Center
12:04AM 41.3747 -96.0619 92° East 259 298 3,800 -600 Descending Minneapolis Center
12:05AM 41.3722 -95.9942 93° East 235 270 3,200 -900 Descending Minneapolis Center
12:06AM 41.3578 -95.9478 113° Southeast 178 205 2,000 -900 Descending Minneapolis Center
12:07AM 41.3297 -95.9206 144° Southeast 142 163 1,400 -600 Descending Minneapolis Center
12:09AM 41.3032 -95.8941 105° East  Level Estimated